sensor_id;sensor_type;location;lat;lon;timestamp;P1;durP1;ratioP1;P2;durP2;ratioP2
15712;SDS011;7957;51.608;6.916;2023-04-03T00:01:46;5.27;;;4.77;;
15712;SDS011;7957;51.608;6.916;2023-04-03T00:04:14;6.37;;;4.80;;
15712;SDS011;7957;51.608;6.916;2023-04-03T00:06:41;5.77;;;5.00;;
15712;SDS011;7957;51.608;6.916;2023-04-03T00:09:08;5.53;;;4.77;;
15712;SDS011;7957;51.608;6.916;2023-04-03T00:11:35;4.97;;;4.33;;
15712;SDS011;7957;51.608;6.916;2023-04-03T00:14:01;4.97;;;4.47;;
15712;SDS011;7957;51.608;6.916;2023-04-03T00:16:28;6.20;;;4.90;;
15712;SDS011;7957;51.608;6.916;2023-04-03T00:18:55;4.97;;;4.37;;
15712;SDS011;7957;51.608;6.916;2023-04-03T00:21:23;6.90;;;5.20;;
15712;SDS011;7957;51.608;6.916;2023-04-03T00:23:51;6.07;;;4.63;;
15712;SDS011;7957;51.608;6.916;2023-04-03T00:26:18;6.10;;;5.03;;
15712;SDS011;7957;51.608;6.916;2023-04-03T00:28:45;4.73;;;4.30;;
15712;SDS011;7957;51.608;6.916;2023-04-03T00:31:13;5.50;;;4.60;;
15712;SDS011;7957;51.608;6.916;2023-04-03T00:33:40;4.77;;;4.37;;
15712;SDS011;7957;51.608;6.916;2023-04-03T00:36:08;6.53;;;4.77;;
15712;SDS011;7957;51.608;6.916;2023-04-03T00:38:37;6.33;;;4.90;;
15712;SDS011;7957;51.608;6.916;2023-04-03T00:41:04;5.03;;;4.27;;
15712;SDS011;7957;51.608;6.916;2023-04-03T00:43:31;5.87;;;4.40;;
15712;SDS011;7957;51.608;6.916;2023-04-03T00:45:59;5.60;;;4.87;;
15712;SDS011;7957;51.608;6.916;2023-04-03T00:48:27;6.30;;;4.90;;
15712;SDS011;7957;51.608;6.916;2023-04-03T00:50:57;5.80;;;4.93;;
15712;SDS011;7957;51.608;6.916;2023-04-03T00:53:25;5.07;;;4.57;;
15712;SDS011;7957;51.608;6.916;2023-04-03T00:55:56;5.37;;;4.87;;
15712;SDS011;7957;51.608;6.916;2023-04-03T00:58:26;5.50;;;4.90;;
15712;SDS011;7957;51.608;6.916;2023-04-03T01:01:00;5.30;;;4.80;;
15712;SDS011;7957;51.608;6.916;2023-04-03T01:03:32;7.83;;;5.17;;
15712;SDS011;7957;51.608;6.916;2023-04-03T01:05:59;5.47;;;4.90;;
15712;SDS011;7957;51.608;6.916;2023-04-03T01:08:26;7.13;;;4.87;;
15712;SDS011;7957;51.608;6.916;2023-04-03T01:10:53;6.23;;;4.90;;
15712;SDS011;7957;51.608;6.916;2023-04-03T01:13:23;6.63;;;5.40;;
15712;SDS011;7957;51.608;6.916;2023-04-03T01:15:51;7.10;;;5.20;;
15712;SDS011;7957;51.608;6.916;2023-04-03T01:18:19;6.90;;;5.23;;
15712;SDS011;7957;51.608;6.916;2023-04-03T01:24:01;5.50;;;5.00;;
15712;SDS011;7957;51.608;6.916;2023-04-03T01:26:37;7.30;;;5.20;;
15712;SDS011;7957;51.608;6.916;2023-04-03T01:29:06;5.80;;;5.20;;
15712;SDS011;7957;51.608;6.916;2023-04-03T01:31:46;7.50;;;5.07;;
15712;SDS011;7957;51.608;6.916;2023-04-03T01:34:15;6.87;;;5.10;;
15712;SDS011;7957;51.608;6.916;2023-04-03T01:36:42;5.97;;;4.40;;
15712;SDS011;7957;51.608;6.916;2023-04-03T01:39:09;6.30;;;4.90;;
15712;SDS011;7957;51.608;6.916;2023-04-03T01:41:36;5.20;;;4.70;;
15712;SDS011;7957;51.608;6.916;2023-04-03T01:44:03;5.80;;;4.77;;
15712;SDS011;7957;51.608;6.916;2023-04-03T01:46:30;5.67;;;4.30;;
15712;SDS011;7957;51.608;6.916;2023-04-03T01:48:59;6.87;;;4.10;;
15712;SDS011;7957;51.608;6.916;2023-04-03T01:51:26;6.00;;;4.67;;
15712;SDS011;7957;51.608;6.916;2023-04-03T01:53:53;5.07;;;4.47;;
15712;SDS011;7957;51.608;6.916;2023-04-03T01:56:20;6.20;;;4.60;;
15712;SDS011;7957;51.608;6.916;2023-04-03T01:58:47;5.97;;;4.63;;
15712;SDS011;7957;51.608;6.916;2023-04-03T02:01:14;5.93;;;4.53;;
15712;SDS011;7957;51.608;6.916;2023-04-03T02:03:41;6.90;;;4.67;;
15712;SDS011;7957;51.608;6.916;2023-04-03T02:06:09;6.67;;;4.20;;
15712;SDS011;7957;51.608;6.916;2023-04-03T02:08:36;5.37;;;4.30;;
15712;SDS011;7957;51.608;6.916;2023-04-03T02:11:03;5.70;;;3.80;;
15712;SDS011;7957;51.608;6.916;2023-04-03T02:13:30;5.97;;;4.07;;
15712;SDS011;7957;51.608;6.916;2023-04-03T02:15:57;4.87;;;3.53;;
15712;SDS011;7957;51.608;6.916;2023-04-03T02:18:24;5.60;;;3.73;;
15712;SDS011;7957;51.608;6.916;2023-04-03T02:20:52;9.33;;;3.60;;
15712;SDS011;7957;51.608;6.916;2023-04-03T02:23:20;5.97;;;3.53;;
15712;SDS011;7957;51.608;6.916;2023-04-03T02:25:47;4.27;;;3.30;;
15712;SDS011;7957;51.608;6.916;2023-04-03T02:28:15;6.10;;;3.53;;
15712;SDS011;7957;51.608;6.916;2023-04-03T02:30:41;4.67;;;3.33;;
15712;SDS011;7957;51.608;6.916;2023-04-03T02:33:08;4.57;;;3.20;;
15712;SDS011;7957;51.608;6.916;2023-04-03T02:35:36;6.27;;;3.40;;
15712;SDS011;7957;51.608;6.916;2023-04-03T02:38:04;4.57;;;3.00;;
15712;SDS011;7957;51.608;6.916;2023-04-03T02:40:33;6.23;;;3.20;;
15712;SDS011;7957;51.608;6.916;2023-04-03T02:43:00;5.10;;;3.10;;
15712;SDS011;7957;51.608;6.916;2023-04-03T02:45:27;4.80;;;3.07;;
15712;SDS011;7957;51.608;6.916;2023-04-03T02:47:53;5.00;;;2.90;;
15712;SDS011;7957;51.608;6.916;2023-04-03T02:50:20;5.47;;;2.83;;
15712;SDS011;7957;51.608;6.916;2023-04-03T02:52:47;5.27;;;2.83;;
15712;SDS011;7957;51.608;6.916;2023-04-03T02:55:14;6.33;;;3.07;;
15712;SDS011;7957;51.608;6.916;2023-04-03T02:57:43;4.53;;;2.80;;
15712;SDS011;7957;51.608;6.916;2023-04-03T03:00:10;4.73;;;2.43;;
15712;SDS011;7957;51.608;6.916;2023-04-03T03:02:37;3.53;;;2.60;;
15712;SDS011;7957;51.608;6.916;2023-04-03T03:05:04;4.23;;;2.53;;
15712;SDS011;7957;51.608;6.916;2023-04-03T03:07:32;4.80;;;2.90;;
15712;SDS011;7957;51.608;6.916;2023-04-03T03:10:00;4.87;;;3.00;;
15712;SDS011;7957;51.608;6.916;2023-04-03T03:12:27;5.37;;;2.43;;
15712;SDS011;7957;51.608;6.916;2023-04-03T03:14:55;3.53;;;2.50;;
15712;SDS011;7957;51.608;6.916;2023-04-03T03:17:22;4.77;;;2.50;;
15712;SDS011;7957;51.608;6.916;2023-04-03T03:19:49;4.23;;;2.53;;
15712;SDS011;7957;51.608;6.916;2023-04-03T03:22:16;4.57;;;2.57;;
15712;SDS011;7957;51.608;6.916;2023-04-03T03:24:43;6.50;;;2.40;;
15712;SDS011;7957;51.608;6.916;2023-04-03T03:27:10;5.87;;;2.70;;
15712;SDS011;7957;51.608;6.916;2023-04-03T03:29:37;3.10;;;2.40;;
15712;SDS011;7957;51.608;6.916;2023-04-03T03:32:06;4.40;;;2.60;;
15712;SDS011;7957;51.608;6.916;2023-04-03T03:34:32;4.80;;;2.77;;
15712;SDS011;7957;51.608;6.916;2023-04-03T03:36:59;5.63;;;2.67;;
15712;SDS011;7957;51.608;6.916;2023-04-03T03:39:26;5.63;;;2.70;;
15712;SDS011;7957;51.608;6.916;2023-04-03T03:41:54;4.73;;;2.30;;
15712;SDS011;7957;51.608;6.916;2023-04-03T03:44:21;3.77;;;2.23;;
15712;SDS011;7957;51.608;6.916;2023-04-03T03:46:48;6.63;;;2.50;;
15712;SDS011;7957;51.608;6.916;2023-04-03T03:49:17;4.90;;;2.50;;
15712;SDS011;7957;51.608;6.916;2023-04-03T03:51:44;5.80;;;2.80;;
15712;SDS011;7957;51.608;6.916;2023-04-03T03:54:11;5.07;;;2.37;;
15712;SDS011;7957;51.608;6.916;2023-04-03T03:56:39;4.47;;;2.40;;
15712;SDS011;7957;51.608;6.916;2023-04-03T03:59:06;3.87;;;2.40;;
15712;SDS011;7957;51.608;6.916;2023-04-03T04:01:32;4.93;;;2.50;;
15712;SDS011;7957;51.608;6.916;2023-04-03T04:03:59;4.93;;;2.70;;
15712;SDS011;7957;51.608;6.916;2023-04-03T04:06:28;5.67;;;2.83;;
15712;SDS011;7957;51.608;6.916;2023-04-03T04:08:55;5.00;;;2.37;;
15712;SDS011;7957;51.608;6.916;2023-04-03T04:11:22;4.63;;;2.57;;
15712;SDS011;7957;51.608;6.916;2023-04-03T04:13:48;5.87;;;2.53;;
15712;SDS011;7957;51.608;6.916;2023-04-03T04:16:15;6.60;;;2.73;;
15712;SDS011;7957;51.608;6.916;2023-04-03T04:18:42;4.23;;;2.50;;
15712;SDS011;7957;51.608;6.916;2023-04-03T04:21:09;4.87;;;2.57;;
15712;SDS011;7957;51.608;6.916;2023-04-03T04:23:38;4.70;;;2.63;;
15712;SDS011;7957;51.608;6.916;2023-04-03T04:26:06;4.43;;;2.40;;
15712;SDS011;7957;51.608;6.916;2023-04-03T04:28:33;5.57;;;2.47;;
15712;SDS011;7957;51.608;6.916;2023-04-03T04:30:59;7.63;;;2.63;;
15712;SDS011;7957;51.608;6.916;2023-04-03T04:33:26;3.80;;;2.33;;
15712;SDS011;7957;51.608;6.916;2023-04-03T04:35:53;4.80;;;2.80;;
15712;SDS011;7957;51.608;6.916;2023-04-03T04:38:20;5.47;;;2.47;;
15712;SDS011;7957;51.608;6.916;2023-04-03T04:40:49;5.53;;;2.10;;
15712;SDS011;7957;51.608;6.916;2023-04-03T04:43:16;5.03;;;2.70;;
15712;SDS011;7957;51.608;6.916;2023-04-03T04:45:43;7.00;;;2.80;;
15712;SDS011;7957;51.608;6.916;2023-04-03T04:48:10;4.27;;;2.60;;
15712;SDS011;7957;51.608;6.916;2023-04-03T04:50:37;5.30;;;2.63;;
15712;SDS011;7957;51.608;6.916;2023-04-03T04:53:03;6.47;;;2.87;;
15712;SDS011;7957;51.608;6.916;2023-04-03T04:55:30;5.23;;;2.70;;
15712;SDS011;7957;51.608;6.916;2023-04-03T04:57:59;5.00;;;2.90;;
15712;SDS011;7957;51.608;6.916;2023-04-03T05:00:26;4.80;;;2.60;;
15712;SDS011;7957;51.608;6.916;2023-04-03T05:02:53;6.43;;;2.67;;
15712;SDS011;7957;51.608;6.916;2023-04-03T05:05:20;5.70;;;2.83;;
15712;SDS011;7957;51.608;6.916;2023-04-03T05:07:47;7.40;;;2.83;;
15712;SDS011;7957;51.608;6.916;2023-04-03T05:10:14;4.20;;;2.53;;
15712;SDS011;7957;51.608;6.916;2023-04-03T05:12:41;6.83;;;2.97;;
15712;SDS011;7957;51.608;6.916;2023-04-03T05:15:10;8.63;;;4.67;;
15712;SDS011;7957;51.608;6.916;2023-04-03T05:17:37;7.30;;;4.17;;
15712;SDS011;7957;51.608;6.916;2023-04-03T05:20:04;7.33;;;3.97;;
15712;SDS011;7957;51.608;6.916;2023-04-03T05:22:32;4.70;;;3.60;;
15712;SDS011;7957;51.608;6.916;2023-04-03T05:24:59;6.57;;;4.10;;
15712;SDS011;7957;51.608;6.916;2023-04-03T05:27:26;6.13;;;3.70;;
15712;SDS011;7957;51.608;6.916;2023-04-03T05:29:54;6.47;;;3.70;;
15712;SDS011;7957;51.608;6.916;2023-04-03T05:32:22;5.20;;;3.40;;
15712;SDS011;7957;51.608;6.916;2023-04-03T05:34:50;4.93;;;3.40;;
15712;SDS011;7957;51.608;6.916;2023-04-03T05:37:17;6.60;;;3.50;;
15712;SDS011;7957;51.608;6.916;2023-04-03T05:39:44;6.03;;;3.37;;
15712;SDS011;7957;51.608;6.916;2023-04-03T05:42:12;4.87;;;3.20;;
15712;SDS011;7957;51.608;6.916;2023-04-03T05:44:40;7.20;;;3.73;;
15712;SDS011;7957;51.608;6.916;2023-04-03T05:47:06;5.30;;;3.10;;
15712;SDS011;7957;51.608;6.916;2023-04-03T05:49:35;6.93;;;3.30;;
15712;SDS011;7957;51.608;6.916;2023-04-03T05:52:05;6.30;;;3.10;;
15712;SDS011;7957;51.608;6.916;2023-04-03T05:54:32;6.57;;;3.23;;
15712;SDS011;7957;51.608;6.916;2023-04-03T05:56:59;5.47;;;3.10;;
15712;SDS011;7957;51.608;6.916;2023-04-03T05:59:26;6.07;;;3.03;;
15712;SDS011;7957;51.608;6.916;2023-04-03T06:01:53;6.23;;;3.30;;
15712;SDS011;7957;51.608;6.916;2023-04-03T06:04:20;5.23;;;2.83;;
15712;SDS011;7957;51.608;6.916;2023-04-03T06:06:49;7.40;;;3.07;;
15712;SDS011;7957;51.608;6.916;2023-04-03T06:09:18;5.77;;;3.07;;
15712;SDS011;7957;51.608;6.916;2023-04-03T06:11:46;4.90;;;2.97;;
15712;SDS011;7957;51.608;6.916;2023-04-03T06:14:13;5.83;;;2.83;;
15712;SDS011;7957;51.608;6.916;2023-04-03T06:16:40;6.13;;;3.07;;
15712;SDS011;7957;51.608;6.916;2023-04-03T06:19:08;7.17;;;3.30;;
15712;SDS011;7957;51.608;6.916;2023-04-03T06:21:38;4.43;;;3.07;;
15712;SDS011;7957;51.608;6.916;2023-04-03T06:24:07;4.53;;;3.10;;
15712;SDS011;7957;51.608;6.916;2023-04-03T06:26:34;8.33;;;3.50;;
15712;SDS011;7957;51.608;6.916;2023-04-03T06:29:01;5.17;;;2.80;;
15712;SDS011;7957;51.608;6.916;2023-04-03T06:31:28;4.90;;;3.13;;
15712;SDS011;7957;51.608;6.916;2023-04-03T06:33:55;5.27;;;2.87;;
15712;SDS011;7957;51.608;6.916;2023-04-03T06:36:22;6.80;;;2.90;;
15712;SDS011;7957;51.608;6.916;2023-04-03T06:38:49;7.97;;;3.10;;
15712;SDS011;7957;51.608;6.916;2023-04-03T06:41:17;7.73;;;3.30;;
15712;SDS011;7957;51.608;6.916;2023-04-03T06:43:44;6.37;;;2.70;;
15712;SDS011;7957;51.608;6.916;2023-04-03T06:46:14;4.60;;;2.93;;
15712;SDS011;7957;51.608;6.916;2023-04-03T06:48:42;6.30;;;3.03;;
15712;SDS011;7957;51.608;6.916;2023-04-03T06:51:14;5.97;;;3.10;;
15712;SDS011;7957;51.608;6.916;2023-04-03T06:53:44;4.83;;;2.80;;
15712;SDS011;7957;51.608;6.916;2023-04-03T06:56:12;5.37;;;2.90;;
15712;SDS011;7957;51.608;6.916;2023-04-03T06:58:40;6.93;;;3.00;;
15712;SDS011;7957;51.608;6.916;2023-04-03T07:01:07;6.90;;;3.03;;
15712;SDS011;7957;51.608;6.916;2023-04-03T07:03:35;5.40;;;2.90;;
15712;SDS011;7957;51.608;6.916;2023-04-03T07:06:03;5.23;;;3.17;;
15712;SDS011;7957;51.608;6.916;2023-04-03T07:08:30;5.73;;;2.80;;
15712;SDS011;7957;51.608;6.916;2023-04-03T07:10:58;5.13;;;2.77;;
15712;SDS011;7957;51.608;6.916;2023-04-03T07:13:24;5.43;;;2.80;;
15712;SDS011;7957;51.608;6.916;2023-04-03T07:15:53;4.17;;;2.70;;
15712;SDS011;7957;51.608;6.916;2023-04-03T07:18:20;5.50;;;2.70;;
15712;SDS011;7957;51.608;6.916;2023-04-03T07:20:47;5.43;;;3.03;;
15712;SDS011;7957;51.608;6.916;2023-04-03T07:23:15;6.60;;;3.40;;
15712;SDS011;7957;51.608;6.916;2023-04-03T07:25:42;4.97;;;2.80;;
15712;SDS011;7957;51.608;6.916;2023-04-03T07:28:10;6.40;;;2.93;;
15712;SDS011;7957;51.608;6.916;2023-04-03T07:30:44;6.67;;;2.60;;
15712;SDS011;7957;51.608;6.916;2023-04-03T07:33:13;5.10;;;2.57;;
15712;SDS011;7957;51.608;6.916;2023-04-03T07:35:41;5.23;;;2.53;;
15712;SDS011;7957;51.608;6.916;2023-04-03T07:38:08;6.50;;;3.10;;
15712;SDS011;7957;51.608;6.916;2023-04-03T07:40:36;5.03;;;2.83;;
15712;SDS011;7957;51.608;6.916;2023-04-03T07:43:03;4.17;;;2.23;;
15712;SDS011;7957;51.608;6.916;2023-04-03T07:45:31;5.73;;;2.80;;
15712;SDS011;7957;51.608;6.916;2023-04-03T07:48:00;5.67;;;2.63;;
15712;SDS011;7957;51.608;6.916;2023-04-03T07:50:29;5.60;;;2.90;;
15712;SDS011;7957;51.608;6.916;2023-04-03T07:52:57;5.47;;;2.63;;
15712;SDS011;7957;51.608;6.916;2023-04-03T07:55:25;3.77;;;2.50;;
15712;SDS011;7957;51.608;6.916;2023-04-03T07:57:51;4.90;;;2.80;;
15712;SDS011;7957;51.608;6.916;2023-04-03T08:00:18;5.57;;;3.03;;
15712;SDS011;7957;51.608;6.916;2023-04-03T08:02:45;7.60;;;3.00;;
15712;SDS011;7957;51.608;6.916;2023-04-03T08:05:15;4.50;;;2.57;;
15712;SDS011;7957;51.608;6.916;2023-04-03T08:07:44;3.90;;;2.67;;
15712;SDS011;7957;51.608;6.916;2023-04-03T08:10:11;5.43;;;2.67;;
15712;SDS011;7957;51.608;6.916;2023-04-03T08:12:39;6.17;;;2.60;;
15712;SDS011;7957;51.608;6.916;2023-04-03T08:15:07;5.60;;;2.80;;
15712;SDS011;7957;51.608;6.916;2023-04-03T08:17:34;5.87;;;2.70;;
15712;SDS011;7957;51.608;6.916;2023-04-03T08:20:02;4.23;;;2.47;;
15712;SDS011;7957;51.608;6.916;2023-04-03T08:22:29;5.93;;;2.77;;
15712;SDS011;7957;51.608;6.916;2023-04-03T08:24:58;5.67;;;2.80;;
15712;SDS011;7957;51.608;6.916;2023-04-03T08:27:26;5.47;;;2.53;;
15712;SDS011;7957;51.608;6.916;2023-04-03T08:29:53;3.03;;;2.20;;
15712;SDS011;7957;51.608;6.916;2023-04-03T08:32:20;5.23;;;2.57;;
15712;SDS011;7957;51.608;6.916;2023-04-03T08:34:47;4.07;;;2.40;;
15712;SDS011;7957;51.608;6.916;2023-04-03T08:37:14;3.17;;;2.43;;
15712;SDS011;7957;51.608;6.916;2023-04-03T08:39:42;4.57;;;2.20;;
15712;SDS011;7957;51.608;6.916;2023-04-03T08:42:14;5.60;;;2.37;;
15712;SDS011;7957;51.608;6.916;2023-04-03T08:44:46;3.50;;;2.37;;
15712;SDS011;7957;51.608;6.916;2023-04-03T08:47:20;5.20;;;2.20;;
15712;SDS011;7957;51.608;6.916;2023-04-03T08:49:51;7.23;;;2.40;;
15712;SDS011;7957;51.608;6.916;2023-04-03T08:52:22;3.93;;;2.40;;
15712;SDS011;7957;51.608;6.916;2023-04-03T08:54:58;4.03;;;2.57;;
15712;SDS011;7957;51.608;6.916;2023-04-03T08:57:30;3.30;;;2.40;;
15712;SDS011;7957;51.608;6.916;2023-04-03T09:00:00;3.53;;;2.13;;
15712;SDS011;7957;51.608;6.916;2023-04-03T09:02:31;3.93;;;2.23;;
15712;SDS011;7957;51.608;6.916;2023-04-03T09:05:01;4.43;;;2.53;;
15712;SDS011;7957;51.608;6.916;2023-04-03T09:07:30;3.27;;;2.20;;
15712;SDS011;7957;51.608;6.916;2023-04-03T09:10:08;3.80;;;2.10;;
15712;SDS011;7957;51.608;6.916;2023-04-03T09:12:40;3.17;;;2.07;;
15712;SDS011;7957;51.608;6.916;2023-04-03T09:15:15;3.87;;;2.27;;
15712;SDS011;7957;51.608;6.916;2023-04-03T09:17:46;5.00;;;2.30;;
15712;SDS011;7957;51.608;6.916;2023-04-03T09:20:24;3.33;;;2.00;;
15712;SDS011;7957;51.608;6.916;2023-04-03T09:22:59;4.27;;;2.10;;
15712;SDS011;7957;51.608;6.916;2023-04-03T09:25:27;4.83;;;1.93;;
15712;SDS011;7957;51.608;6.916;2023-04-03T09:27:59;3.67;;;2.50;;
15712;SDS011;7957;51.608;6.916;2023-04-03T09:30:27;3.73;;;2.10;;
15712;SDS011;7957;51.608;6.916;2023-04-03T09:32:55;2.03;;;1.63;;
15712;SDS011;7957;51.608;6.916;2023-04-03T09:35:24;2.90;;;1.80;;
15712;SDS011;7957;51.608;6.916;2023-04-03T09:37:52;3.90;;;2.03;;
15712;SDS011;7957;51.608;6.916;2023-04-03T09:40:29;4.67;;;2.27;;
15712;SDS011;7957;51.608;6.916;2023-04-03T09:43:18;2.73;;;1.67;;
15712;SDS011;7957;51.608;6.916;2023-04-03T09:45:48;2.97;;;1.83;;
15712;SDS011;7957;51.608;6.916;2023-04-03T09:48:17;2.70;;;1.77;;
15712;SDS011;7957;51.608;6.916;2023-04-03T09:50:53;2.20;;;1.73;;
15712;SDS011;7957;51.608;6.916;2023-04-03T09:53:27;2.90;;;1.73;;
15712;SDS011;7957;51.608;6.916;2023-04-03T09:55:56;3.00;;;2.00;;
15712;SDS011;7957;51.608;6.916;2023-04-03T09:58:26;3.70;;;2.00;;
15712;SDS011;7957;51.608;6.916;2023-04-03T10:00:55;3.27;;;2.00;;
15712;SDS011;7957;51.608;6.916;2023-04-03T10:03:26;2.23;;;1.73;;
15712;SDS011;7957;51.608;6.916;2023-04-03T10:05:56;2.77;;;1.77;;
15712;SDS011;7957;51.608;6.916;2023-04-03T10:08:25;3.93;;;1.80;;
15712;SDS011;7957;51.608;6.916;2023-04-03T10:11:10;3.50;;;1.90;;
15712;SDS011;7957;51.608;6.916;2023-04-03T10:13:53;2.63;;;1.73;;
15712;SDS011;7957;51.608;6.916;2023-04-03T10:16:24;1.93;;;1.60;;
15712;SDS011;7957;51.608;6.916;2023-04-03T10:18:56;5.47;;;1.87;;
15712;SDS011;7957;51.608;6.916;2023-04-03T10:21:33;2.90;;;1.70;;
15712;SDS011;7957;51.608;6.916;2023-04-03T10:24:09;3.00;;;1.90;;
15712;SDS011;7957;51.608;6.916;2023-04-03T10:26:43;3.57;;;1.70;;
15712;SDS011;7957;51.608;6.916;2023-04-03T10:29:21;4.60;;;1.70;;
15712;SDS011;7957;51.608;6.916;2023-04-03T10:32:02;1.80;;;1.40;;
15712;SDS011;7957;51.608;6.916;2023-04-03T10:34:47;3.30;;;1.63;;
15712;SDS011;7957;51.608;6.916;2023-04-03T10:37:24;2.63;;;1.63;;
15712;SDS011;7957;51.608;6.916;2023-04-03T10:39:53;2.53;;;1.83;;
15712;SDS011;7957;51.608;6.916;2023-04-03T10:42:27;2.60;;;1.50;;
15712;SDS011;7957;51.608;6.916;2023-04-03T10:45:06;2.90;;;1.73;;
15712;SDS011;7957;51.608;6.916;2023-04-03T10:47:44;2.80;;;1.50;;
15712;SDS011;7957;51.608;6.916;2023-04-03T10:50:26;2.97;;;1.80;;
15712;SDS011;7957;51.608;6.916;2023-04-03T10:53:00;2.57;;;1.60;;
15712;SDS011;7957;51.608;6.916;2023-04-03T10:55:34;2.03;;;1.80;;
15712;SDS011;7957;51.608;6.916;2023-04-03T10:58:04;3.43;;;1.60;;
15712;SDS011;7957;51.608;6.916;2023-04-03T11:00:36;3.93;;;1.80;;
15712;SDS011;7957;51.608;6.916;2023-04-03T11:03:07;3.40;;;1.83;;
15712;SDS011;7957;51.608;6.916;2023-04-03T11:05:39;3.53;;;1.67;;
15712;SDS011;7957;51.608;6.916;2023-04-03T11:08:11;3.37;;;1.70;;
15712;SDS011;7957;51.608;6.916;2023-04-03T11:10:44;3.90;;;1.80;;
15712;SDS011;7957;51.608;6.916;2023-04-03T11:13:14;2.83;;;1.80;;
15712;SDS011;7957;51.608;6.916;2023-04-03T11:15:49;2.27;;;1.80;;
15712;SDS011;7957;51.608;6.916;2023-04-03T11:18:20;2.20;;;1.30;;
15712;SDS011;7957;51.608;6.916;2023-04-03T11:20:53;2.30;;;1.40;;
15712;SDS011;7957;51.608;6.916;2023-04-03T11:23:28;3.03;;;1.70;;
15712;SDS011;7957;51.608;6.916;2023-04-03T11:26:01;2.00;;;1.60;;
15712;SDS011;7957;51.608;6.916;2023-04-03T11:28:35;2.07;;;1.60;;
15712;SDS011;7957;51.608;6.916;2023-04-03T11:31:06;2.33;;;1.73;;
15712;SDS011;7957;51.608;6.916;2023-04-03T11:33:44;1.97;;;1.30;;
15712;SDS011;7957;51.608;6.916;2023-04-03T11:36:19;2.13;;;1.50;;
15712;SDS011;7957;51.608;6.916;2023-04-03T11:38:50;3.57;;;1.60;;
15712;SDS011;7957;51.608;6.916;2023-04-03T11:41:24;3.20;;;1.60;;
15712;SDS011;7957;51.608;6.916;2023-04-03T11:43:58;3.97;;;1.80;;
15712;SDS011;7957;51.608;6.916;2023-04-03T11:58:25;3.03;;;1.50;;
15712;SDS011;7957;51.608;6.916;2023-04-03T12:00:57;1.90;;;1.57;;
15712;SDS011;7957;51.608;6.916;2023-04-03T12:03:33;2.03;;;1.50;;
15712;SDS011;7957;51.608;6.916;2023-04-03T12:09:25;2.63;;;1.70;;
15712;SDS011;7957;51.608;6.916;2023-04-03T12:11:55;2.73;;;1.77;;
15712;SDS011;7957;51.608;6.916;2023-04-03T12:14:23;2.30;;;1.70;;
15712;SDS011;7957;51.608;6.916;2023-04-03T12:16:52;2.63;;;1.60;;
15712;SDS011;7957;51.608;6.916;2023-04-03T12:19:36;2.13;;;1.30;;
15712;SDS011;7957;51.608;6.916;2023-04-03T12:22:15;2.37;;;1.63;;
15712;SDS011;7957;51.608;6.916;2023-04-03T12:24:45;3.67;;;1.67;;
15712;SDS011;7957;51.608;6.916;2023-04-03T12:27:33;2.43;;;1.60;;
15712;SDS011;7957;51.608;6.916;2023-04-03T12:30:06;2.30;;;1.57;;
15712;SDS011;7957;51.608;6.916;2023-04-03T12:35:43;1.83;;;1.67;;
15712;SDS011;7957;51.608;6.916;2023-04-03T12:38:20;2.43;;;1.60;;
15712;SDS011;7957;51.608;6.916;2023-04-03T12:41:18;2.77;;;1.63;;
15712;SDS011;7957;51.608;6.916;2023-04-03T12:43:55;2.13;;;1.80;;
15712;SDS011;7957;51.608;6.916;2023-04-03T12:46:34;3.20;;;1.80;;
15712;SDS011;7957;51.608;6.916;2023-04-03T12:49:13;2.70;;;1.73;;
15712;SDS011;7957;51.608;6.916;2023-04-03T12:51:52;2.70;;;1.70;;
15712;SDS011;7957;51.608;6.916;2023-04-03T12:54:20;2.60;;;1.80;;
15712;SDS011;7957;51.608;6.916;2023-04-03T12:56:49;2.57;;;1.70;;
15712;SDS011;7957;51.608;6.916;2023-04-03T12:59:18;3.80;;;1.90;;
15712;SDS011;7957;51.608;6.916;2023-04-03T13:01:52;2.33;;;1.70;;
15712;SDS011;7957;51.608;6.916;2023-04-03T13:04:20;2.50;;;1.73;;
15712;SDS011;7957;51.608;6.916;2023-04-03T13:06:48;4.33;;;1.70;;
15712;SDS011;7957;51.608;6.916;2023-04-03T13:09:20;4.93;;;1.63;;
15712;SDS011;7957;51.608;6.916;2023-04-03T13:11:51;2.50;;;1.70;;
15712;SDS011;7957;51.608;6.916;2023-04-03T13:14:22;3.73;;;1.90;;
15712;SDS011;7957;51.608;6.916;2023-04-03T13:16:55;2.83;;;1.90;;
15712;SDS011;7957;51.608;6.916;2023-04-03T13:19:23;2.60;;;1.77;;
15712;SDS011;7957;51.608;6.916;2023-04-03T13:21:52;3.13;;;1.83;;
15712;SDS011;7957;51.608;6.916;2023-04-03T13:24:25;3.50;;;1.90;;
15712;SDS011;7957;51.608;6.916;2023-04-03T13:26:55;2.37;;;1.40;;
15712;SDS011;7957;51.608;6.916;2023-04-03T13:29:23;2.27;;;1.50;;
15712;SDS011;7957;51.608;6.916;2023-04-03T13:31:52;2.80;;;1.70;;
15712;SDS011;7957;51.608;6.916;2023-04-03T13:34:22;3.90;;;1.90;;
15712;SDS011;7957;51.608;6.916;2023-04-03T13:36:57;2.23;;;1.60;;
15712;SDS011;7957;51.608;6.916;2023-04-03T13:39:28;2.43;;;1.80;;
15712;SDS011;7957;51.608;6.916;2023-04-03T13:41:57;2.50;;;1.57;;
15712;SDS011;7957;51.608;6.916;2023-04-03T13:44:28;2.47;;;1.60;;
15712;SDS011;7957;51.608;6.916;2023-04-03T13:47:00;2.67;;;1.43;;
15712;SDS011;7957;51.608;6.916;2023-04-03T13:49:40;3.03;;;1.50;;
15712;SDS011;7957;51.608;6.916;2023-04-03T13:52:20;2.77;;;1.70;;
15712;SDS011;7957;51.608;6.916;2023-04-03T13:54:54;2.23;;;1.40;;
15712;SDS011;7957;51.608;6.916;2023-04-03T13:57:23;3.87;;;1.80;;
15712;SDS011;7957;51.608;6.916;2023-04-03T13:59:50;3.50;;;1.90;;
15712;SDS011;7957;51.608;6.916;2023-04-03T14:02:18;2.30;;;1.50;;
15712;SDS011;7957;51.608;6.916;2023-04-03T14:04:49;2.20;;;1.30;;
15712;SDS011;7957;51.608;6.916;2023-04-03T14:07:21;3.57;;;1.50;;
15712;SDS011;7957;51.608;6.916;2023-04-03T14:09:49;2.80;;;1.57;;
15712;SDS011;7957;51.608;6.916;2023-04-03T14:12:19;2.23;;;1.57;;
15712;SDS011;7957;51.608;6.916;2023-04-03T14:14:51;1.77;;;1.33;;
15712;SDS011;7957;51.608;6.916;2023-04-03T14:17:20;2.90;;;1.50;;
15712;SDS011;7957;51.608;6.916;2023-04-03T14:19:49;1.83;;;1.50;;
15712;SDS011;7957;51.608;6.916;2023-04-03T14:22:18;2.63;;;1.47;;
15712;SDS011;7957;51.608;6.916;2023-04-03T14:24:47;2.90;;;1.50;;
15712;SDS011;7957;51.608;6.916;2023-04-03T14:27:17;3.23;;;1.70;;
15712;SDS011;7957;51.608;6.916;2023-04-03T14:29:47;2.53;;;1.93;;
15712;SDS011;7957;51.608;6.916;2023-04-03T14:32:16;3.40;;;1.90;;
15712;SDS011;7957;51.608;6.916;2023-04-03T14:34:44;3.37;;;1.60;;
15712;SDS011;7957;51.608;6.916;2023-04-03T14:37:12;3.23;;;1.70;;
15712;SDS011;7957;51.608;6.916;2023-04-03T14:39:41;2.53;;;1.60;;
15712;SDS011;7957;51.608;6.916;2023-04-03T14:42:13;3.67;;;2.00;;
15712;SDS011;7957;51.608;6.916;2023-04-03T14:44:43;4.03;;;1.90;;
15712;SDS011;7957;51.608;6.916;2023-04-03T14:47:11;3.13;;;1.80;;
15712;SDS011;7957;51.608;6.916;2023-04-03T14:49:39;3.10;;;1.83;;
15712;SDS011;7957;51.608;6.916;2023-04-03T14:52:09;4.17;;;2.13;;
15712;SDS011;7957;51.608;6.916;2023-04-03T14:54:44;3.10;;;1.80;;
15712;SDS011;7957;51.608;6.916;2023-04-03T14:57:11;3.43;;;2.00;;
15712;SDS011;7957;51.608;6.916;2023-04-03T14:59:41;2.90;;;1.90;;
15712;SDS011;7957;51.608;6.916;2023-04-03T15:02:13;3.07;;;1.80;;
15712;SDS011;7957;51.608;6.916;2023-04-03T15:04:52;1.80;;;1.50;;
15712;SDS011;7957;51.608;6.916;2023-04-03T15:07:18;2.93;;;1.90;;
15712;SDS011;7957;51.608;6.916;2023-04-03T15:09:45;2.87;;;2.03;;
15712;SDS011;7957;51.608;6.916;2023-04-03T15:12:12;3.00;;;1.97;;
15712;SDS011;7957;51.608;6.916;2023-04-03T15:14:39;3.33;;;1.90;;
15712;SDS011;7957;51.608;6.916;2023-04-03T15:17:08;4.43;;;1.80;;
15712;SDS011;7957;51.608;6.916;2023-04-03T15:19:41;3.73;;;1.90;;
15712;SDS011;7957;51.608;6.916;2023-04-03T15:22:08;3.27;;;1.90;;
15712;SDS011;7957;51.608;6.916;2023-04-03T15:24:39;3.80;;;2.20;;
15712;SDS011;7957;51.608;6.916;2023-04-03T15:27:06;3.47;;;1.90;;
15712;SDS011;7957;51.608;6.916;2023-04-03T15:29:33;3.10;;;1.80;;
15712;SDS011;7957;51.608;6.916;2023-04-03T15:32:00;4.00;;;2.10;;
15712;SDS011;7957;51.608;6.916;2023-04-03T15:34:28;3.93;;;2.00;;
15712;SDS011;7957;51.608;6.916;2023-04-03T15:36:56;3.50;;;1.93;;